createdAt,value
2018-07-16T00:00:35.099Z,61.36
2018-07-16T00:01:35.247Z,61.16
2018-07-16T00:02:35.403Z,61.36
2018-07-16T00:03:35.557Z,61.36
2018-07-16T00:04:35.714Z,61.33
2018-07-16T00:05:35.868Z,61.36
2018-07-16T00:06:36.024Z,61.61
2018-07-16T00:07:36.177Z,61.84
2018-07-16T00:08:36.333Z,61.07
2018-07-16T00:09:36.487Z,61.07
2018-07-16T00:10:36.641Z,60.78
2018-07-16T00:11:36.795Z,60.88
2018-07-16T00:12:36.948Z,60.69
2018-07-16T00:13:37.106Z,60.69
2018-07-16T00:14:37.292Z,60.49
2018-07-16T00:15:37.417Z,60.56
2018-07-16T00:16:37.571Z,60.85
2018-07-16T00:17:37.726Z,60.49
2018-07-16T00:18:37.881Z,60.66
2018-07-16T00:19:38.036Z,60.46
2018-07-16T00:20:38.190Z,60.94
2018-07-16T00:21:38.346Z,61.04
2018-07-16T00:22:38.501Z,60.85
2018-07-16T00:23:38.657Z,61.14
2018-07-16T00:24:38.809Z,61.33
2018-07-16T00:25:38.966Z,61.71
2018-07-16T00:26:39.121Z,61.43
2018-07-16T00:27:39.275Z,61.81
2018-07-16T00:28:39.432Z,61.52
2018-07-16T00:29:39.588Z,61.14
2018-07-16T00:30:39.739Z,61.23
2018-07-16T00:31:39.896Z,61.14
2018-07-16T00:32:40.054Z,61.33
2018-07-16T00:33:40.204Z,61.14
2018-07-16T00:34:40.359Z,61.04
2018-07-16T00:35:40.513Z,61.04
2018-07-16T00:36:40.669Z,61.43
2018-07-16T00:37:40.826Z,61.81
2018-07-16T00:38:40.979Z,61.14
2018-07-16T00:39:41.136Z,60.94
2018-07-16T00:40:41.291Z,60.85
2018-07-16T00:41:41.446Z,60.75
2018-07-16T00:42:41.601Z,60.85
2018-07-16T00:43:41.757Z,60.94
2018-07-16T00:44:41.913Z,61.61
2018-07-16T00:45:42.069Z,61.81
2018-07-16T00:46:42.224Z,61.33
2018-07-16T00:47:42.379Z,61.91
2018-07-16T00:48:42.533Z,62.29
2018-07-16T00:49:42.691Z,61.61
2018-07-16T00:50:42.844Z,61.43
2018-07-16T00:51:43.000Z,62.77
2018-07-16T00:52:43.154Z,61.52
2018-07-16T00:53:43.311Z,61.52
2018-07-16T00:54:43.465Z,61.91
2018-07-16T00:55:43.622Z,61.58
2018-07-16T00:56:43.774Z,61.68
2018-07-16T00:57:43.929Z,61.78
2018-07-16T00:58:44.084Z,61.78
2018-07-16T00:59:44.239Z,62.26
2018-07-16T01:00:44.394Z,61.97
2018-07-16T01:01:44.548Z,61.97
2018-07-16T01:02:44.707Z,62.84
2018-07-16T01:03:44.860Z,61.87
2018-07-16T01:04:45.016Z,62.68
2018-07-16T01:05:45.170Z,62.74
2018-07-16T01:06:45.328Z,62.64
2018-07-16T01:07:45.482Z,63.12
2018-07-16T01:08:45.637Z,63.12
2018-07-16T01:09:45.790Z,62.45
2018-07-16T01:10:45.946Z,62.55
2018-07-16T01:11:46.101Z,63.02
2018-07-16T01:12:46.256Z,63.32
2018-07-16T01:13:46.409Z,63.79
2018-07-16T01:14:46.564Z,63.79
2018-07-16T01:15:46.718Z,63.19
2018-07-16T01:16:46.874Z,63.51
2018-07-16T01:17:47.029Z,64.15
2018-07-16T01:18:47.185Z,64.72
2018-07-16T01:19:47.338Z,64.82
2018-07-16T01:20:47.491Z,64.34
2018-07-16T01:21:47.648Z,64.63
2018-07-16T01:22:47.801Z,64.34
2018-07-16T01:23:47.959Z,64.43
2018-07-16T01:24:48.114Z,64.53
2018-07-16T01:25:48.267Z,65.11
2018-07-16T01:26:48.424Z,64.63
2018-07-16T01:27:48.578Z,64.63
2018-07-16T01:28:48.732Z,65.11
2018-07-16T01:29:48.889Z,65.11
2018-07-16T01:30:49.044Z,65.69
2018-07-16T01:31:49.200Z,65.20
2018-07-16T01:32:49.354Z,64.92
2018-07-16T01:33:49.512Z,65.49
2018-07-16T01:34:49.667Z,65.11
2018-07-16T01:35:49.822Z,65.46
2018-07-16T01:36:49.976Z,66.03
2018-07-16T01:37:50.130Z,65.84
2018-07-16T01:38:50.286Z,66.03
2018-07-16T01:39:50.440Z,66.52
2018-07-16T01:40:50.598Z,66.71
2018-07-16T01:41:50.793Z,66.33
2018-07-16T01:42:50.908Z,66.42
2018-07-16T01:43:51.065Z,66.52
2018-07-16T01:44:51.218Z,66.61
2018-07-16T01:45:51.374Z,66.52
2018-07-16T01:46:51.529Z,66.90
2018-07-16T01:47:51.683Z,66.52
2018-07-16T01:48:51.838Z,67.29
2018-07-16T01:49:51.995Z,67.00
2018-07-16T01:50:52.150Z,67.38
2018-07-16T01:51:52.302Z,67.67
2018-07-16T01:52:52.460Z,67.57
2018-07-16T01:53:52.615Z,67.29
2018-07-16T01:54:52.771Z,67.47
2018-07-16T01:55:52.928Z,66.90
2018-07-16T01:56:53.082Z,67.09
2018-07-16T01:57:53.237Z,67.57
2018-07-16T01:58:53.393Z,67.73
2018-07-16T01:59:53.547Z,67.47
2018-07-16T02:00:53.713Z,67.00
2018-07-16T02:01:53.858Z,67.38
2018-07-16T02:02:54.017Z,67.96
2018-07-16T02:03:54.171Z,67.96
2018-07-16T02:04:54.327Z,67.86
2018-07-16T02:05:54.482Z,67.86
2018-07-16T02:06:54.637Z,68.12
2018-07-16T02:07:54.795Z,68.24
2018-07-16T02:08:54.950Z,67.92
2018-07-16T02:09:55.103Z,68.44
2018-07-16T02:10:55.261Z,67.73
2018-07-16T02:11:55.414Z,68.44
2018-07-16T02:12:55.570Z,67.76
2018-07-16T02:13:55.728Z,67.92
2018-07-16T02:14:55.881Z,68.50
2018-07-16T02:15:56.036Z,67.73
2018-07-16T02:16:56.189Z,68.88
2018-07-16T02:17:56.348Z,68.69
2018-07-16T02:18:56.500Z,68.50
2018-07-16T02:19:56.656Z,68.69
2018-07-16T02:20:56.812Z,69.26
2018-07-16T02:21:56.964Z,68.69
2018-07-16T02:22:57.121Z,68.88
2018-07-16T02:23:57.311Z,69.07
2018-07-16T02:24:57.429Z,68.69
2018-07-16T02:25:57.589Z,68.88
2018-07-16T02:26:57.742Z,69.17
2018-07-16T02:27:57.896Z,69.26
2018-07-16T02:28:58.056Z,69.56
2018-07-16T02:29:58.209Z,69.56
2018-07-16T02:30:58.365Z,69.56
2018-07-16T02:31:58.519Z,69.74
2018-07-16T02:32:58.684Z,69.84
2018-07-16T02:33:58.834Z,69.46
2018-07-16T02:34:58.988Z,70.03
2018-07-16T02:35:59.142Z,70.70
2018-07-16T02:36:59.297Z,70.99
2018-07-16T02:37:59.453Z,70.96
2018-07-16T02:38:59.608Z,71.63
2018-07-16T02:39:59.764Z,71.72
2018-07-16T02:40:59.918Z,71.15
2018-07-16T02:42:00.076Z,71.44
2018-07-16T02:43:00.227Z,72.11
2018-07-16T02:44:00.383Z,72.11
2018-07-16T02:45:02.438Z,72.01
2018-07-16T02:46:00.719Z,72.01
2018-07-16T02:47:00.871Z,71.92
2018-07-16T02:48:01.026Z,72.49
2018-07-16T02:49:01.181Z,72.49
2018-07-16T02:50:01.351Z,72.49
2018-07-16T02:51:01.492Z,71.92
2018-07-16T02:52:01.647Z,72.20
2018-07-16T02:53:01.805Z,72.20
2018-07-16T02:54:01.959Z,72.88
2018-07-16T02:55:02.113Z,72.01
2018-07-16T02:56:02.264Z,72.20
2018-07-16T02:57:02.421Z,72.59
2018-07-16T02:58:02.577Z,73.26
2018-07-16T02:59:02.729Z,72.88
2018-07-16T03:00:02.887Z,73.41
2018-07-16T03:01:03.040Z,73.22
2018-07-16T03:02:03.194Z,73.70
2018-07-16T03:03:03.348Z,73.80
2018-07-16T03:04:03.503Z,73.22
2018-07-16T03:05:03.659Z,73.16
2018-07-16T03:06:03.814Z,73.35
2018-07-16T03:07:03.970Z,73.45
2018-07-16T03:08:04.125Z,73.16
2018-07-16T03:09:04.281Z,73.07
2018-07-16T03:10:04.433Z,73.65
2018-07-16T03:11:04.634Z,73.74
2018-07-16T03:12:04.748Z,73.26
2018-07-16T03:13:04.901Z,73.74
2018-07-16T03:14:05.054Z,73.74
2018-07-16T03:15:05.212Z,73.70
2018-07-16T03:16:05.373Z,73.93
2018-07-16T03:17:05.518Z,73.55
2018-07-16T03:18:05.749Z,73.93
2018-07-16T03:19:05.837Z,73.83
2018-07-16T03:20:05.989Z,73.83
2018-07-16T03:21:06.147Z,74.02
2018-07-16T03:22:06.300Z,74.27
2018-07-16T03:23:06.451Z,74.76
2018-07-16T03:24:06.605Z,74.95
2018-07-16T03:25:06.761Z,74.66
2018-07-16T03:26:06.916Z,75.14
2018-07-16T03:27:07.070Z,74.95
2018-07-16T03:28:07.224Z,75.23
2018-07-16T03:29:07.378Z,76.10
2018-07-16T03:30:07.537Z,75.43
2018-07-16T03:31:07.689Z,75.90
2018-07-16T03:32:07.842Z,74.95
2018-07-16T03:33:07.996Z,75.62
2018-07-16T03:34:08.150Z,76.39
2018-07-16T03:35:08.307Z,76.96
2018-07-16T03:36:08.459Z,77.15
2018-07-16T03:37:08.617Z,77.11
2018-07-16T03:38:08.769Z,77.78
2018-07-16T03:39:08.926Z,77.59
2018-07-16T03:40:09.080Z,77.59
2018-07-16T03:41:09.234Z,77.50
2018-07-16T03:42:09.389Z,77.69
2018-07-16T03:43:09.543Z,78.27
2018-07-16T03:44:09.696Z,78.27
2018-07-16T03:45:09.851Z,78.55
2018-07-16T03:46:10.008Z,78.17
2018-07-16T03:47:10.159Z,79.22
2018-07-16T03:48:10.331Z,79.32
2018-07-16T03:49:10.470Z,79.41
2018-07-16T03:50:10.623Z,79.89
2018-07-16T03:51:10.778Z,79.80
2018-07-16T03:52:10.930Z,79.80
2018-07-16T03:53:11.085Z,79.60
2018-07-16T03:54:11.240Z,79.32
2018-07-16T03:55:11.395Z,79.13
2018-07-16T03:56:11.549Z,78.74
2018-07-16T03:57:11.703Z,78.93
2018-07-16T03:58:11.856Z,78.27
2018-07-16T03:59:12.012Z,78.20
2018-07-16T04:00:12.169Z,77.73
2018-07-16T04:01:12.322Z,78.20
2018-07-16T04:02:12.478Z,77.92
2018-07-16T04:03:12.632Z,78.17
2018-07-16T04:04:12.785Z,78.69
2018-07-16T04:05:12.941Z,78.78
2018-07-16T04:06:13.096Z,78.49
2018-07-16T04:07:13.249Z,78.59
2018-07-16T04:08:13.402Z,78.11
2018-07-16T04:09:13.558Z,78.20
2018-07-16T04:10:13.712Z,78.30
2018-07-16T04:11:13.867Z,77.63
2018-07-16T04:12:14.022Z,78.30
2018-07-16T04:13:14.179Z,77.63
2018-07-16T04:14:14.329Z,77.38
2018-07-16T04:15:14.484Z,77.73
2018-07-16T04:16:14.640Z,77.95
2018-07-16T04:17:14.794Z,77.67
2018-07-16T04:18:14.949Z,77.76
2018-07-16T04:19:15.103Z,77.00
2018-07-16T04:20:15.258Z,77.19
2018-07-16T04:21:15.413Z,77.00
2018-07-16T04:22:15.567Z,77.19
2018-07-16T04:23:15.723Z,78.05
2018-07-16T04:24:15.880Z,77.76
2018-07-16T04:25:16.035Z,77.76
2018-07-16T04:26:16.189Z,77.76
2018-07-16T04:27:16.343Z,77.86
2018-07-16T04:28:16.498Z,77.38
2018-07-16T04:29:16.655Z,77.58
2018-07-16T04:30:16.808Z,77.09
2018-07-16T04:31:16.981Z,77.19
2018-07-16T04:32:17.119Z,77.19
2018-07-16T04:33:17.275Z,77.09
2018-07-16T04:34:17.431Z,76.81
2018-07-16T04:35:17.585Z,76.81
2018-07-16T04:36:17.740Z,76.81
2018-07-16T04:37:17.893Z,77.19
2018-07-16T04:38:18.047Z,76.23
2018-07-16T04:39:18.204Z,76.14
2018-07-16T04:40:18.357Z,75.65
2018-07-16T04:41:18.515Z,76.04
2018-07-16T04:42:18.667Z,76.14
2018-07-16T04:43:18.823Z,76.52
2018-07-16T04:44:18.977Z,76.71
2018-07-16T04:45:19.134Z,77.00
2018-07-16T04:46:19.290Z,76.71
2018-07-16T04:47:19.450Z,76.71
2018-07-16T04:48:19.598Z,77.00
2018-07-16T04:49:19.751Z,77.48
2018-07-16T04:50:19.905Z,77.48
2018-07-16T04:51:20.064Z,77.38
2018-07-16T04:52:20.218Z,77.44
2018-07-16T04:53:20.375Z,77.44
2018-07-16T04:54:20.528Z,77.38
2018-07-16T04:55:20.684Z,77.00
2018-07-16T04:56:20.942Z,77.09
2018-07-16T04:57:20.995Z,76.62
2018-07-16T04:58:21.148Z,76.90
2018-07-16T04:59:21.304Z,76.81
2018-07-16T05:00:21.460Z,76.14
2018-07-16T05:01:21.619Z,76.23
2018-07-16T05:02:21.778Z,76.90
2018-07-16T05:03:21.949Z,76.23
2018-07-16T05:04:22.081Z,75.75
2018-07-16T05:05:22.235Z,75.85
2018-07-16T05:06:22.391Z,75.85
2018-07-16T05:07:22.548Z,75.37
2018-07-16T05:08:22.701Z,74.98
2018-07-16T05:09:22.856Z,74.41
2018-07-16T05:10:23.010Z,74.98
2018-07-16T05:11:23.167Z,75.37
2018-07-16T05:12:23.321Z,75.79
2018-07-16T05:13:23.479Z,76.17
2018-07-16T05:14:23.632Z,75.98
2018-07-16T05:15:23.788Z,75.40
2018-07-16T05:16:23.946Z,75.70
2018-07-16T05:17:24.100Z,75.60
2018-07-16T05:18:24.415Z,74.83
2018-07-16T05:19:24.412Z,74.19
2018-07-16T05:20:24.569Z,73.58
2018-07-16T05:21:24.725Z,72.81
2018-07-16T05:22:24.881Z,72.72
2018-07-16T05:23:25.036Z,72.72
2018-07-16T05:24:25.191Z,73.20
2018-07-16T05:25:25.350Z,73.20
2018-07-16T05:26:25.503Z,73.58
2018-07-16T05:27:25.655Z,74.44
2018-07-16T05:28:25.811Z,73.97
2018-07-16T05:29:25.968Z,73.14
2018-07-16T05:30:26.125Z,73.20
2018-07-16T05:31:26.297Z,73.04
2018-07-16T05:32:26.596Z,72.05
2018-07-16T05:33:26.587Z,72.72
2018-07-16T05:34:26.745Z,73.20
2018-07-16T05:35:26.899Z,73.87
2018-07-16T05:36:27.053Z,74.44
2018-07-16T05:37:27.211Z,76.07
2018-07-16T05:38:27.368Z,75.79
2018-07-16T05:39:27.523Z,76.37
2018-07-16T05:40:27.676Z,77.04
2018-07-16T05:41:27.832Z,77.80
2018-07-16T05:42:27.988Z,78.00
2018-07-16T05:43:28.144Z,77.13
2018-07-16T05:44:28.299Z,78.19
2018-07-16T05:45:28.454Z,78.38
2018-07-16T05:46:28.608Z,77.80
2018-07-16T05:47:28.765Z,78.28
2018-07-16T05:48:28.919Z,78.38
2018-07-16T05:49:29.079Z,78.67
2018-07-16T05:50:29.229Z,78.09
2018-07-16T05:51:29.388Z,77.90
2018-07-16T05:52:29.542Z,78.38
2018-07-16T05:53:29.703Z,78.23
2018-07-16T05:54:29.853Z,77.90
2018-07-16T05:55:30.011Z,76.94
2018-07-16T05:56:30.165Z,76.98
2018-07-16T05:57:30.326Z,78.19
2018-07-16T05:58:30.480Z,78.61
2018-07-16T05:59:30.632Z,78.23
2018-07-16T06:00:30.786Z,77.26
2018-07-16T06:01:30.944Z,77.08
2018-07-16T06:02:31.105Z,76.79
2018-07-16T06:03:31.256Z,76.31
2018-07-16T06:04:31.415Z,74.87
2018-07-16T06:05:31.568Z,73.91
2018-07-16T06:06:31.726Z,74.10
2018-07-16T06:07:31.878Z,74.96
2018-07-16T06:08:32.034Z,74.48
2018-07-16T06:09:32.189Z,75.54
2018-07-16T06:10:32.345Z,74.33
2018-07-16T06:11:32.500Z,74.58
2018-07-16T06:12:32.658Z,72.22
2018-07-16T06:13:32.813Z,73.27
2018-07-16T06:14:32.983Z,74.13
2018-07-16T06:15:33.125Z,73.94
2018-07-16T06:16:33.278Z,74.04
2018-07-16T06:17:33.435Z,74.29
2018-07-16T06:18:33.591Z,74.90
2018-07-16T06:19:33.745Z,75.00
2018-07-16T06:20:33.902Z,74.23
2018-07-16T06:21:34.060Z,73.79
2018-07-16T06:22:34.217Z,73.31
2018-07-16T06:23:34.371Z,73.31
2018-07-16T06:24:34.527Z,72.34
2018-07-16T06:25:34.685Z,71.33
2018-07-16T06:26:34.841Z,70.84
2018-07-16T06:27:34.998Z,70.94
2018-07-16T06:28:35.153Z,70.46
2018-07-16T06:29:35.337Z,69.79
2018-07-16T06:30:35.458Z,68.54
2018-07-16T06:31:35.617Z,67.58
2018-07-16T06:32:35.799Z,67.10
2018-07-16T06:33:35.930Z,66.71
2018-07-16T06:34:36.090Z,68.06
2018-07-16T06:35:36.238Z,68.44
2018-07-16T06:36:36.397Z,68.25
2018-07-16T06:37:36.554Z,68.19
2018-07-16T06:38:36.709Z,67.13
2018-07-16T06:39:36.906Z,67.42
2018-07-16T06:40:37.111Z,66.65
2018-07-16T06:41:37.483Z,66.74
2018-07-16T06:42:37.332Z,65.88
2018-07-16T06:43:37.489Z,66.36
2018-07-16T06:44:37.644Z,65.11
2018-07-16T06:45:37.800Z,65.14
2018-07-16T06:46:37.958Z,64.66
2018-07-16T06:47:38.156Z,65.14
2018-07-16T06:48:38.271Z,65.05
2018-07-16T06:49:38.427Z,63.89
2018-07-16T06:50:38.582Z,63.99
2018-07-16T06:51:38.741Z,63.22
2018-07-16T06:52:38.905Z,62.93
2018-07-16T06:53:39.059Z,63.06
2018-07-16T06:54:39.211Z,62.09
2018-07-16T06:55:39.370Z,61.52
2018-07-16T06:56:39.525Z,62.57
2018-07-16T06:57:39.682Z,64.02
2018-07-16T06:58:39.840Z,63.41
2018-07-16T06:59:39.996Z,63.06
2018-07-16T07:00:40.153Z,63.06
2018-07-16T07:01:40.311Z,64.02
2018-07-16T07:02:40.469Z,64.50
2018-07-16T07:03:40.625Z,65.17
2018-07-16T07:04:40.783Z,64.21
2018-07-16T07:05:40.940Z,63.64
2018-07-16T07:06:41.098Z,64.69
2018-07-16T07:07:41.256Z,65.08
2018-07-16T07:08:41.411Z,65.17
2018-07-16T07:09:41.570Z,65.08
2018-07-16T07:10:41.726Z,64.21
2018-07-16T07:11:41.884Z,64.31
2018-07-16T07:12:42.038Z,64.21
2018-07-16T07:13:42.356Z,64.43
2018-07-16T07:14:42.366Z,63.28
2018-07-16T07:15:42.528Z,63.50
2018-07-16T07:16:42.681Z,62.54
2018-07-16T07:17:42.842Z,63.02
2018-07-16T07:18:42.996Z,62.63
2018-07-16T07:19:43.154Z,62.32
2018-07-16T07:20:43.319Z,61.68
2018-07-16T07:21:43.468Z,62.15
2018-07-16T07:22:43.623Z,62.45
2018-07-16T07:23:43.782Z,61.48
2018-07-16T07:24:43.937Z,61.10
2018-07-16T07:25:44.096Z,61.10
2018-07-16T07:26:44.254Z,61.51
2018-07-16T07:27:44.412Z,61.32
2018-07-16T07:28:44.567Z,60.93
2018-07-16T07:29:44.725Z,61.13
2018-07-16T07:30:44.884Z,60.58
2018-07-16T07:31:45.040Z,60.68
2018-07-16T07:32:45.199Z,60.68
2018-07-16T07:33:45.360Z,60.96
2018-07-16T07:34:45.515Z,60.38
2018-07-16T07:35:45.745Z,60.41
2018-07-16T07:36:45.835Z,60.41
2018-07-16T07:37:45.991Z,60.71
2018-07-16T07:38:46.150Z,60.89
2018-07-16T07:39:46.307Z,60.71
2018-07-16T07:40:46.466Z,59.48
2018-07-16T07:41:46.624Z,60.44
2018-07-16T07:42:46.782Z,61.12
2018-07-16T07:43:46.940Z,60.54
2018-07-16T07:44:47.098Z,60.83
2018-07-16T07:45:47.257Z,60.80
2018-07-16T07:46:47.418Z,60.61
2018-07-16T07:47:47.703Z,60.64
2018-07-16T07:48:47.737Z,61.31
2018-07-16T07:49:47.893Z,62.57
2018-07-16T07:50:48.050Z,60.96
2018-07-16T07:51:48.210Z,60.96
2018-07-16T07:52:48.368Z,60.67
2018-07-16T07:53:48.528Z,60.86
2018-07-16T07:54:48.836Z,61.37
2018-07-16T07:55:48.844Z,60.69
2018-07-16T07:56:49.001Z,60.41
2018-07-16T07:57:49.161Z,59.92
2018-07-16T07:58:49.322Z,59.34
2018-07-16T07:59:49.479Z,59.25
2018-07-16T08:00:49.637Z,59.15
2018-07-16T08:01:49.797Z,59.05
2018-07-16T08:02:49.961Z,59.15
2018-07-16T08:03:50.121Z,59.34
2018-07-16T12:59:39.772Z,44.27
2018-07-16T13:00:39.934Z,43.88
2018-07-16T13:01:40.095Z,44.75
2018-07-16T13:02:40.258Z,44.85
2018-07-16T13:03:40.422Z,45.34
2018-07-16T13:04:40.584Z,45.14
2018-07-16T13:05:40.746Z,45.72
2018-07-16T13:06:40.910Z,44.54
2018-07-16T13:07:41.075Z,45.04
2018-07-16T13:08:41.235Z,45.24
2018-07-16T13:09:41.395Z,45.04
2018-07-16T13:10:41.558Z,44.65
2018-07-16T13:11:41.719Z,45.14
2018-07-16T13:12:41.880Z,44.27
2018-07-16T13:13:42.051Z,45.45
2018-07-16T13:14:42.206Z,44.17
2018-07-16T13:15:42.368Z,43.41
2018-07-16T13:16:42.533Z,43.90
2018-07-16T13:17:42.699Z,44.29
2018-07-16T13:18:42.857Z,43.02
2018-07-16T13:19:43.020Z,41.88
2018-07-16T13:20:43.183Z,42.08
2018-07-16T13:21:43.361Z,41.32
2018-07-16T13:22:43.509Z,41.42
2018-07-16T13:23:43.671Z,40.06
2018-07-16T13:24:43.832Z,41.14
2018-07-16T13:25:43.998Z,40.48
2018-07-16T13:26:44.161Z,39.70
2018-07-16T13:27:44.327Z,41.06
2018-07-16T13:28:44.489Z,41.16
2018-07-16T13:29:44.683Z,38.46
2018-07-16T13:30:44.814Z,38.17
2018-07-16T13:31:44.978Z,38.85
2018-07-16T13:32:45.141Z,39.84
2018-07-16T13:33:45.309Z,38.28
2018-07-16T13:34:45.468Z,37.41
2018-07-16T13:35:45.630Z,36.16
2018-07-16T13:36:45.793Z,36.35
2018-07-16T13:37:45.956Z,36.27
2018-07-16T13:38:46.119Z,35.71
2018-07-16T13:39:46.281Z,34.94
2018-07-16T13:40:46.444Z,34.67
2018-07-16T13:41:46.605Z,32.73
2018-07-16T13:42:46.772Z,32.26
2018-07-16T13:43:46.935Z,31.67
2018-07-16T13:44:47.098Z,33.02
2018-07-16T13:45:47.262Z,31.35
2018-07-16T13:46:47.488Z,30.76
2018-07-16T13:47:47.586Z,31.59
2018-07-16T13:48:47.785Z,30.82
2018-07-16T13:49:47.916Z,30.72
2018-07-16T13:50:48.077Z,29.14
2018-07-16T13:51:48.245Z,32.27
2018-07-16T13:52:48.485Z,34.39
2018-07-16T13:53:48.568Z,36.33
2018-07-16T13:54:48.730Z,38.06
2018-07-16T13:55:48.895Z,37.87
2018-07-16T13:56:49.065Z,38.63
2018-07-16T13:57:49.221Z,38.26
2018-07-16T13:58:49.383Z,39.72
2018-07-16T13:59:49.549Z,39.80
2018-07-16T14:00:49.712Z,40.00
2018-07-16T14:01:49.891Z,39.70
2018-07-16T14:02:50.040Z,37.46
2018-07-16T14:03:50.204Z,36.66
2018-07-16T14:04:50.371Z,35.49
2018-07-16T14:05:50.529Z,35.88
2018-07-16T14:06:50.694Z,35.59
2018-07-16T14:07:50.858Z,35.78
2018-07-16T14:08:51.021Z,37.54
2018-07-16T14:09:51.189Z,38.02
2018-07-16T14:10:51.355Z,38.32
2018-07-16T14:11:51.515Z,38.42
2018-07-16T14:12:51.679Z,38.61
2018-07-16T14:13:51.846Z,38.49
2018-07-16T14:14:52.007Z,40.64
2018-07-16T14:15:52.175Z,40.72
2018-07-16T14:16:52.339Z,40.62
2018-07-16T14:17:52.499Z,40.81
2018-07-16T14:18:52.661Z,41.96
2018-07-16T14:19:52.825Z,43.04
2018-07-16T14:20:52.990Z,41.96
2018-07-16T14:21:53.151Z,41.28
2018-07-16T14:22:53.313Z,41.46
2018-07-16T14:23:53.479Z,42.04
2018-07-16T14:24:53.643Z,42.14
2018-07-16T14:25:53.805Z,41.94
2018-07-16T14:26:53.966Z,42.43
2018-07-16T14:27:54.127Z,42.43
2018-07-16T14:28:54.289Z,43.30
2018-07-16T14:29:54.457Z,43.99
2018-07-16T14:30:54.614Z,43.99
2018-07-16T14:31:54.776Z,43.25
2018-07-16T14:32:54.938Z,41.81
2018-07-16T14:33:55.103Z,41.44
2018-07-16T14:34:55.263Z,41.19
2018-07-16T14:35:55.428Z,40.31
2018-07-16T14:36:55.590Z,40.55
2018-07-16T14:37:55.752Z,40.66
2018-07-16T14:38:55.915Z,39.12
2018-07-16T14:39:56.091Z,38.45
2018-07-16T14:40:56.244Z,39.10
2018-07-16T14:41:56.405Z,41.21
2018-07-16T14:42:56.572Z,42.26
2018-07-16T14:43:56.730Z,41.56
2018-07-16T14:44:57.081Z,39.75
2018-07-16T14:45:57.055Z,38.30
2018-07-16T14:46:57.219Z,39.55
2018-07-16T14:47:57.380Z,40.00
2018-07-16T14:48:57.544Z,40.66
2018-07-16T14:49:57.708Z,41.42
2018-07-16T14:50:57.874Z,42.00
2018-07-16T14:51:58.035Z,41.38
2018-07-16T14:52:58.197Z,40.06
2018-07-16T14:53:58.358Z,38.16
2018-07-16T14:54:58.522Z,37.49
2018-07-16T14:55:58.686Z,36.33
2018-07-16T14:56:58.916Z,35.08
2018-07-16T14:57:59.014Z,34.57
2018-07-16T14:58:59.181Z,35.25
2018-07-16T14:59:59.343Z,34.96
2018-07-16T15:00:59.504Z,34.21
2018-07-16T15:01:59.665Z,34.51
2018-07-16T15:02:59.830Z,34.42
2018-07-16T15:03:59.992Z,36.49
2018-07-16T15:05:00.156Z,37.27
2018-07-16T15:06:00.322Z,35.21
2018-07-16T15:07:00.485Z,35.88
2018-07-16T15:08:00.649Z,35.23
2018-07-16T15:09:00.819Z,34.39
2018-07-16T15:10:00.979Z,32.90
2018-07-16T15:11:01.168Z,31.32
2018-07-16T15:12:01.311Z,30.63
2018-07-16T15:13:01.477Z,30.98
2018-07-16T15:14:01.645Z,31.17
2018-07-16T15:15:01.805Z,32.64
2018-07-16T15:16:01.971Z,32.73
2018-07-16T15:17:02.139Z,33.31
2018-07-16T15:18:02.304Z,33.02
2018-07-16T15:19:02.468Z,33.80
2018-07-16T15:20:02.779Z,33.98
2018-07-16T15:21:02.998Z,34.78
2018-07-16T15:22:02.966Z,34.01
2018-07-16T15:23:03.134Z,33.62
2018-07-16T15:24:03.295Z,36.47
2018-07-16T15:25:03.464Z,37.32
2018-07-16T15:26:03.626Z,38.87
2018-07-16T15:27:03.790Z,38.98
2018-07-16T15:28:03.956Z,38.98
2018-07-16T15:29:04.121Z,39.28
2018-07-16T15:30:04.292Z,38.96
2018-07-16T15:31:04.456Z,38.28
2018-07-16T15:32:04.617Z,39.62
2018-07-16T15:33:04.781Z,40.00
2018-07-16T15:34:04.949Z,40.95
2018-07-16T15:35:05.112Z,43.18
2018-07-16T15:36:05.283Z,44.62
2018-07-16T15:37:05.443Z,45.12
2018-07-16T15:38:05.607Z,44.41
2018-07-16T15:39:05.801Z,44.48
2018-07-16T15:40:05.967Z,45.58
2018-07-16T15:41:06.140Z,47.68
2018-07-16T15:42:06.294Z,49.05
2018-07-16T15:43:06.458Z,48.80
2018-07-16T15:44:06.621Z,50.19
2018-07-16T15:45:06.786Z,52.46
2018-07-16T15:46:06.948Z,52.31
2018-07-16T15:47:07.116Z,51.70
2018-07-16T15:48:07.279Z,53.66
2018-07-16T15:49:07.441Z,52.17
2018-07-16T15:50:07.606Z,54.38
2018-07-16T15:51:07.767Z,56.30
2018-07-16T15:52:07.931Z,56.60
2018-07-16T15:53:08.095Z,56.37
2018-07-16T15:54:08.258Z,55.44
2018-07-16T15:55:08.422Z,56.71
2018-07-16T15:56:08.594Z,55.61
2018-07-16T15:57:08.750Z,56.32
2018-07-16T15:58:08.917Z,56.68
2018-07-16T15:59:09.077Z,56.20
2018-07-16T16:00:09.245Z,57.82
2018-07-16T16:01:09.403Z,58.50
2018-07-16T16:02:09.565Z,58.67
2018-07-16T16:03:09.727Z,59.25
2018-07-16T16:04:09.895Z,58.47
2018-07-16T16:05:10.057Z,59.15
2018-07-16T16:06:10.221Z,59.34
2018-07-16T16:07:10.382Z,57.98
2018-07-16T16:08:10.542Z,58.18
2018-07-16T16:09:10.706Z,57.23
2018-07-16T16:10:10.876Z,54.80
2018-07-16T16:11:11.030Z,55.19
2018-07-16T16:12:11.196Z,55.68
2018-07-16T16:13:11.444Z,53.59
2018-07-16T16:14:11.516Z,52.84
2018-07-16T16:15:11.678Z,53.23
2018-07-16T16:16:12.303Z,51.21
2018-07-16T16:17:12.016Z,51.58
2018-07-16T16:18:12.178Z,47.63
2018-07-16T16:19:12.340Z,48.78
2018-07-16T16:20:12.500Z,49.73
2018-07-16T16:21:12.664Z,49.10
2018-07-16T16:22:12.828Z,51.63
2018-07-16T16:23:13.023Z,53.06
2018-07-16T16:24:13.153Z,50.36
2018-07-16T16:25:13.326Z,48.97
2018-07-16T16:26:13.493Z,46.19
2018-07-16T16:27:13.639Z,46.11
2018-07-16T16:28:13.804Z,44.98
2018-07-16T16:29:13.967Z,43.34
2018-07-16T16:30:14.131Z,43.27
2018-07-16T16:31:14.295Z,42.50
2018-07-16T16:32:14.455Z,40.95
2018-07-16T16:33:14.619Z,41.49
2018-07-16T16:34:14.779Z,43.20
2018-07-16T16:35:14.943Z,44.92
2018-07-16T16:36:15.108Z,45.85
2018-07-16T16:37:15.270Z,46.31
2018-07-16T16:38:15.432Z,47.56
2018-07-16T16:39:15.593Z,46.49
2018-07-16T16:40:15.756Z,48.24
2018-07-16T16:41:15.925Z,47.63
2018-07-16T16:42:16.088Z,47.42
2018-07-16T16:43:16.252Z,47.20
2018-07-16T16:44:16.417Z,49.22
2018-07-16T16:45:16.582Z,49.22
2018-07-16T16:46:16.742Z,49.68
2018-07-16T16:47:16.909Z,49.58
2018-07-16T16:48:17.069Z,50.65
2018-07-16T16:49:17.233Z,50.36
2018-07-16T16:50:17.400Z,51.89
2018-07-16T16:51:17.559Z,51.89
2018-07-16T16:52:17.731Z,52.15
2018-07-16T16:53:17.894Z,52.84
2018-07-16T16:54:18.056Z,52.64
2018-07-16T16:55:18.218Z,52.62
2018-07-16T16:56:18.381Z,52.03
2018-07-16T16:57:18.541Z,52.23
2018-07-16T16:58:18.705Z,51.75
2018-07-16T16:59:18.867Z,51.65
2018-07-16T17:00:19.047Z,50.77
2018-07-16T17:01:19.190Z,51.35
2018-07-16T17:02:19.353Z,51.35
2018-07-16T17:03:19.514Z,50.77
2018-07-16T17:04:19.676Z,50.38
2018-07-16T17:05:19.837Z,49.32
2018-07-16T17:06:20.003Z,50.19
2018-07-16T17:07:20.162Z,50.58
2018-07-16T17:08:20.324Z,49.22
2018-07-16T17:09:20.487Z,49.12
2018-07-16T17:10:20.650Z,49.22
2018-07-16T17:11:20.811Z,48.73
2018-07-16T17:12:20.972Z,49.41
2018-07-16T17:13:21.137Z,49.02
2018-07-16T17:14:21.300Z,50.19
2018-07-16T17:15:21.466Z,48.93
2018-07-16T17:16:21.625Z,48.35
2018-07-16T17:17:21.799Z,49.41
2018-07-16T17:18:21.992Z,50.19
2018-07-16T17:19:22.122Z,49.51
2018-07-16T17:20:22.281Z,49.34
2018-07-16T17:21:22.441Z,49.15
2018-07-16T17:22:22.605Z,48.90
2018-07-16T17:23:22.855Z,47.49
2018-07-16T17:24:22.926Z,46.64
2018-07-16T17:25:23.087Z,46.00
2018-07-16T17:26:23.249Z,43.51
2018-07-16T17:27:23.409Z,42.65
2018-07-16T17:28:23.573Z,41.60
2018-07-16T17:29:23.735Z,42.09
2018-07-16T17:30:23.899Z,41.03
2018-07-16T17:31:24.060Z,41.21
2018-07-16T17:32:24.221Z,41.42
2018-07-16T17:33:24.384Z,40.84
2018-07-16T17:34:24.543Z,42.36
2018-07-16T17:35:24.708Z,43.51
2018-07-16T17:36:24.872Z,44.46
2018-07-16T17:37:25.031Z,44.83
2018-07-16T17:38:25.193Z,45.20
2018-07-16T17:39:25.363Z,46.83
2018-07-16T17:40:25.532Z,46.81
2018-07-16T17:41:25.681Z,47.39
2018-07-16T17:42:25.847Z,51.55
2018-07-16T17:43:26.009Z,52.89
2018-07-16T17:44:26.171Z,52.47
2018-07-16T17:45:26.334Z,50.73
2018-07-16T17:46:26.499Z,52.94
2018-07-16T17:47:26.667Z,53.61
2018-07-16T17:48:26.825Z,52.55
2018-07-16T17:49:26.988Z,54.58